EGNR

Hawarden Airport

Hawarden, United Kingdom
METAR EGNR 241150Z 14012KT 9999 FEW025 05/M03 Q1024
Observed Flight Rules
Feb-24 @ 11:50 UTC (35 minutes ago) Visual Flight Rules
Wind Visibility Clouds
140° at 12 knots 10,000+ meters
  • Few at 2,500' AGL
Temperatures Readings
Current 5°C / 41°F
Dewpoint -3°C / 27°F
Humidity 57%
Altimeter 30.24" Hg
Pressure 1024 hPa
Elevation 10
METAR EGNR 241150Z 14012KT 9999 FEW025 05/M03 Q1024
Observed Flight Rules
Feb-24 @ 11:50 UTC
(35 minutes ago)
VFR
Wind Visibility
140° at 12 knots 10,000+ meters
Clouds
  • Few at 2,500' AGL
Temperature Dewpoint
5°C / 41°F -3°C / 27°F
Humidity Altimeter Pressure
57% 30.24" Hg 1024 hPa